createdAt,value
2019-01-23T00:01:39.087Z,52.80
2019-01-23T00:04:22.477Z,52.20
2019-01-23T00:07:07.073Z,52.70
2019-01-23T00:09:53.819Z,52.00
2019-01-23T00:15:27.949Z,49.40
2019-01-23T00:21:07.069Z,50.10
2019-01-23T00:23:43.426Z,50.70
2019-01-23T00:26:18.419Z,50.20
2019-01-23T00:29:00.841Z,50.30
2019-01-23T00:31:43.448Z,51.50
2019-01-23T00:34:20.895Z,49.90
2019-01-23T00:40:16.104Z,48.50
2019-01-23T00:45:48.296Z,49.10
2019-01-23T00:48:39.072Z,49.80
2019-01-23T00:51:29.055Z,48.10
2019-01-23T01:00:11.244Z,49.50
2019-01-23T01:06:00.281Z,52.00
2019-01-23T01:08:45.093Z,50.00
2019-01-23T01:14:30.528Z,51.80
2019-01-23T01:17:12.048Z,50.50
2019-01-23T01:19:51.564Z,51.60
2019-01-23T01:22:40.775Z,52.60
2019-01-23T01:25:26.490Z,54.70
2019-01-23T01:28:03.502Z,53.20
2019-01-23T01:30:43.988Z,54.40
2019-01-23T01:33:25.864Z,55.80
2019-01-23T01:36:05.502Z,57.20
2019-01-23T01:38:42.233Z,58.30
2019-01-23T01:41:19.025Z,58.20
2019-01-23T01:44:00.229Z,58.70
2019-01-23T01:46:39.100Z,56.90
2019-01-23T01:49:15.182Z,56.90
2019-01-23T01:51:50.548Z,57.10
2019-01-23T01:54:25.852Z,58.10
2019-01-23T01:57:05.761Z,58.20
2019-01-23T01:59:44.312Z,59.70
2019-01-23T02:02:19.686Z,60.40
2019-01-23T02:05:07.711Z,60.00
2019-01-23T02:07:42.829Z,59.00
2019-01-23T02:10:19.734Z,59.70
2019-01-23T02:12:54.948Z,58.90
2019-01-23T02:15:31.519Z,56.10
2019-01-23T02:18:07.012Z,56.50
2019-01-23T02:20:46.345Z,59.10
2019-01-23T02:23:22.531Z,58.90
2019-01-23T02:25:59.218Z,60.70
2019-01-23T02:28:34.454Z,61.30
2019-01-23T02:31:14.407Z,60.70
2019-01-23T02:33:49.964Z,59.80
2019-01-23T02:36:26.379Z,58.10
2019-01-23T02:39:05.238Z,57.50
2019-01-23T02:41:41.909Z,54.10
2019-01-23T02:44:18.483Z,56.90
2019-01-23T02:46:53.937Z,54.90
2019-01-23T02:49:29.312Z,54.10
2019-01-23T02:52:04.278Z,54.90
2019-01-23T02:54:40.506Z,54.90
2019-01-23T02:57:16.209Z,56.10
2019-01-23T02:59:51.388Z,58.40
2019-01-23T03:02:27.126Z,56.50
2019-01-23T03:05:04.498Z,57.20
2019-01-23T03:07:44.103Z,58.10
2019-01-23T03:10:31.008Z,59.10
2019-01-23T03:13:09.886Z,60.30
2019-01-23T03:15:45.874Z,58.60
2019-01-23T03:18:33.011Z,57.90
2019-01-23T03:21:08.158Z,57.10
2019-01-23T03:23:45.679Z,54.90
2019-01-23T03:28:57.155Z,56.90
2019-01-23T03:34:08.153Z,56.10
2019-01-23T03:36:49.940Z,55.90
2019-01-23T03:39:26.393Z,56.00
2019-01-23T03:42:02.404Z,57.10
2019-01-23T03:44:38.077Z,58.40
2019-01-23T03:47:14.109Z,60.00
2019-01-23T03:49:50.757Z,60.10
2019-01-23T03:52:25.871Z,57.80
2019-01-23T03:55:04.064Z,55.30
2019-01-23T03:57:39.113Z,54.30
2019-01-23T04:00:15.207Z,55.30
2019-01-23T04:02:55.792Z,56.90
2019-01-23T04:05:34.639Z,55.50
2019-01-23T04:08:13.102Z,52.00
2019-01-23T04:10:53.606Z,54.80
2019-01-23T04:13:30.581Z,55.90
2019-01-23T04:16:07.298Z,59.30
2019-01-23T04:18:46.857Z,57.50
2019-01-23T04:21:24.871Z,56.90
2019-01-23T04:24:00.346Z,56.10
2019-01-23T04:26:36.000Z,57.20
2019-01-23T04:29:13.467Z,55.20
2019-01-23T04:31:49.599Z,53.40
2019-01-23T04:34:36.984Z,55.30
2019-01-23T04:37:12.507Z,54.30
2019-01-23T04:39:48.537Z,52.80
2019-01-23T04:42:24.901Z,53.30
2019-01-23T04:45:00.202Z,54.70
2019-01-23T04:47:35.915Z,54.50
2019-01-23T04:50:11.287Z,52.90
2019-01-23T04:52:55.344Z,53.20
2019-01-23T04:55:32.086Z,54.70
2019-01-23T04:58:07.562Z,55.20
2019-01-23T05:00:42.737Z,54.30
2019-01-23T05:03:18.318Z,53.80
2019-01-23T05:05:55.375Z,52.50
2019-01-23T05:08:30.706Z,52.00
2019-01-23T05:11:05.626Z,50.40
2019-01-23T05:13:41.393Z,51.40
2019-01-23T05:22:25.956Z,50.40
2019-01-23T05:25:01.752Z,49.60
2019-01-23T05:27:37.363Z,50.50
2019-01-23T05:30:15.263Z,50.30
2019-01-23T05:32:48.410Z,49.80
2019-01-23T05:35:25.641Z,48.70
2019-01-23T05:38:06.770Z,48.60
2019-01-23T05:40:42.483Z,50.00
2019-01-23T05:43:17.552Z,51.20
2019-01-23T05:45:54.177Z,53.90
2019-01-23T05:48:28.777Z,52.70
2019-01-23T05:51:05.906Z,52.00
2019-01-23T05:53:41.367Z,52.20
2019-01-23T05:56:18.522Z,52.90
2019-01-23T05:58:53.168Z,53.00
2019-01-23T06:01:44.095Z,51.60
2019-01-23T06:04:20.425Z,51.20
2019-01-23T06:06:55.195Z,50.80
2019-01-23T06:09:30.703Z,50.00
2019-01-23T06:12:12.159Z,50.40
2019-01-23T06:14:53.498Z,50.60
2019-01-23T06:17:30.964Z,51.30
2019-01-23T06:20:08.486Z,52.20
2019-01-23T06:22:44.187Z,53.70
2019-01-23T06:25:22.431Z,51.30
2019-01-23T06:28:03.619Z,52.80
2019-01-23T06:30:40.935Z,51.50
2019-01-23T06:33:17.495Z,51.20
2019-01-23T06:35:55.345Z,50.20
2019-01-23T06:38:32.197Z,49.30
2019-01-23T06:41:07.506Z,47.30
2019-01-23T06:43:43.291Z,44.30
2019-01-23T06:46:22.305Z,48.30
2019-01-23T06:48:59.302Z,49.00
2019-01-23T06:51:40.206Z,49.30
2019-01-23T06:54:18.726Z,51.30
2019-01-23T06:56:56.661Z,52.80
2019-01-23T06:59:34.260Z,52.30
2019-01-23T07:02:11.812Z,52.90
2019-01-23T07:04:48.968Z,48.60
2019-01-23T07:07:27.708Z,51.90
2019-01-23T07:10:02.532Z,52.30
2019-01-23T07:12:40.188Z,50.20
2019-01-23T07:15:22.645Z,51.80
2019-01-23T07:18:02.552Z,51.50
2019-01-23T07:23:32.405Z,48.70
2019-01-23T07:26:07.992Z,50.40
2019-01-23T07:28:49.126Z,51.50
2019-01-23T07:31:25.897Z,49.50
2019-01-23T07:34:03.408Z,50.20
2019-01-23T07:36:41.020Z,50.80
2019-01-23T07:46:53.549Z,46.70
2019-01-23T07:49:29.447Z,46.40
2019-01-23T07:52:05.060Z,47.70
2019-01-23T07:54:40.389Z,46.20
2019-01-23T07:57:17.735Z,44.60
2019-01-23T08:00:06.144Z,44.50
2019-01-23T08:02:42.018Z,44.90
2019-01-23T08:05:21.271Z,44.10
2019-01-23T08:08:01.148Z,41.10
2019-01-23T08:10:35.919Z,41.10
2019-01-23T08:13:11.011Z,41.30
2019-01-23T08:15:46.734Z,42.90
2019-01-23T08:18:24.929Z,44.10
2019-01-23T08:21:01.890Z,46.30
2019-01-23T08:23:37.302Z,43.10
2019-01-23T08:26:15.358Z,42.60
2019-01-23T08:28:50.889Z,43.50
2019-01-23T08:31:27.565Z,43.50
2019-01-23T08:34:06.203Z,44.90
2019-01-23T08:36:45.570Z,45.80
2019-01-23T08:39:21.163Z,45.60
2019-01-23T08:41:59.710Z,45.90
2019-01-23T08:44:40.907Z,45.60
2019-01-23T08:47:16.900Z,45.20
2019-01-23T08:49:55.517Z,45.50
2019-01-23T08:52:35.048Z,45.00
2019-01-23T08:55:11.973Z,42.60
2019-01-23T08:57:47.100Z,43.10
2019-01-23T09:00:23.183Z,44.20
2019-01-23T09:03:01.238Z,45.10
2019-01-23T09:05:38.385Z,44.80
2019-01-23T09:08:13.920Z,44.00
2019-01-23T09:10:51.053Z,45.20
2019-01-23T09:13:25.951Z,45.00
2019-01-23T09:16:02.439Z,46.00
2019-01-23T09:18:37.362Z,46.20
2019-01-23T09:21:15.810Z,46.30
2019-01-23T09:23:51.258Z,44.10
2019-01-23T09:26:29.177Z,44.00
2019-01-23T09:29:08.562Z,45.40
2019-01-23T09:31:53.578Z,42.90
2019-01-23T09:34:38.381Z,44.20
2019-01-23T09:37:20.904Z,43.60
2019-01-23T09:40:01.874Z,43.60
2019-01-23T09:42:45.376Z,43.70
2019-01-23T09:45:34.518Z,43.90
2019-01-23T09:48:17.588Z,44.40
2019-01-23T09:50:59.516Z,45.30
2019-01-23T09:53:40.972Z,46.10
2019-01-23T09:56:16.669Z,46.10
2019-01-23T09:58:53.944Z,44.20
2019-01-23T10:01:29.379Z,44.50
2019-01-23T10:04:09.454Z,44.70
2019-01-23T10:06:52.270Z,43.40
2019-01-23T10:09:28.166Z,43.10
2019-01-23T10:12:19.365Z,42.70
2019-01-23T10:15:02.988Z,42.20
2019-01-23T10:17:39.483Z,41.10
2019-01-23T10:20:20.383Z,41.70
2019-01-23T10:26:01.708Z,40.60
2019-01-23T10:28:40.553Z,39.50
2019-01-23T10:31:34.278Z,40.10
2019-01-23T10:34:19.188Z,40.10
2019-01-23T10:36:56.483Z,39.30
2019-01-23T10:39:34.031Z,38.60
2019-01-23T10:42:16.982Z,37.60
2019-01-23T10:44:56.013Z,36.90
2019-01-23T10:47:45.674Z,37.70
2019-01-23T10:50:39.778Z,36.20
2019-01-23T10:53:27.815Z,36.60
2019-01-23T11:05:24.265Z,36.30
2019-01-23T11:08:00.974Z,34.70
2019-01-23T11:13:45.874Z,33.20
2019-01-23T11:16:27.161Z,31.70
2019-01-23T11:19:07.211Z,30.80
2019-01-23T11:21:53.896Z,30.70
2019-01-23T11:24:31.076Z,31.30
2019-01-23T11:27:09.348Z,30.60
2019-01-23T11:29:52.638Z,30.00
2019-01-23T11:32:33.355Z,29.20
2019-01-23T11:35:21.998Z,29.20
2019-01-23T11:38:09.932Z,30.00
2019-01-23T11:40:58.432Z,31.30
2019-01-23T11:43:47.665Z,31.20
2019-01-23T15:04:42.604Z,28.30
2019-01-23T15:56:22.086Z,33.20
2019-01-23T17:33:22.677Z,37.40
2019-01-23T17:39:30.579Z,38.60
2019-01-23T17:54:39.150Z,40.90
2019-01-23T17:57:19.150Z,41.40
2019-01-23T18:54:43.729Z,40.80
2019-01-23T18:57:23.627Z,41.60
2019-01-23T19:45:48.018Z,47.40
2019-01-23T19:48:22.758Z,46.40
2019-01-23T19:51:04.002Z,47.40
2019-01-23T19:53:41.655Z,47.50
2019-01-23T20:05:53.932Z,49.40
2019-01-23T20:08:45.602Z,48.60
